Tres Coracoes, Brazil
Current Conditions -  °F | °C
As of 6:00 AM on Monday 20 Oct 2014 (Local Time) from SBGW Reporting Station
Haze Haze  
Wind Chill: 68°   Ceiling: 3000
Heat Index: 68°   Visibility: 3mi
Dew Point: 63°   Wind: 0mph
Humidity: 83%   Direction: NA
Pressure: 29.94"   Gusts: NA
Location:  21.69°S, 45.26°W
Report Text: SBGW 200900Z 00000KT 5000 BR BKN030 BKN080 20/17 Q1014
Loading
Personal Weather Stations






























Interactive Weather Map
Tropical Storm Tracking
New forecast layout! Learn more

10-Day Weather Forecast

Advertisements
Track Severe Weather on mobile